sensor_id;sensor_type;location;lat;lon;timestamp;P1;durP1;ratioP1;P2;durP2;ratioP2
22046;SDS011;11187;49.412;20.956;2023-05-10T00:02:09;15.98;;;14.68;;
22046;SDS011;11187;49.412;20.956;2023-05-10T00:04:42;16.33;;;14.98;;
22046;SDS011;11187;49.412;20.956;2023-05-10T00:07:29;16.88;;;15.52;;
22046;SDS011;11187;49.412;20.956;2023-05-10T00:10:02;18.88;;;17.00;;
22046;SDS011;11187;49.412;20.956;2023-05-10T00:12:50;22.65;;;19.23;;
22046;SDS011;11187;49.412;20.956;2023-05-10T00:15:23;18.98;;;17.00;;
22046;SDS011;11187;49.412;20.956;2023-05-10T00:18:14;18.38;;;16.58;;
22046;SDS011;11187;49.412;20.956;2023-05-10T00:20:47;18.23;;;16.63;;
22046;SDS011;11187;49.412;20.956;2023-05-10T00:23:34;17.35;;;15.95;;
22046;SDS011;11187;49.412;20.956;2023-05-10T00:26:07;18.45;;;16.98;;
22046;SDS011;11187;49.412;20.956;2023-05-10T00:28:55;17.98;;;16.33;;
22046;SDS011;11187;49.412;20.956;2023-05-10T00:31:28;18.13;;;16.52;;
22046;SDS011;11187;49.412;20.956;2023-05-10T00:34:15;17.23;;;15.82;;
22046;SDS011;11187;49.412;20.956;2023-05-10T00:36:48;17.98;;;16.38;;
22046;SDS011;11187;49.412;20.956;2023-05-10T00:39:36;17.77;;;16.23;;
22046;SDS011;11187;49.412;20.956;2023-05-10T00:42:16;17.75;;;16.15;;
22046;SDS011;11187;49.412;20.956;2023-05-10T00:44:56;17.30;;;15.98;;
22046;SDS011;11187;49.412;20.956;2023-05-10T00:47:36;16.85;;;15.50;;
22046;SDS011;11187;49.412;20.956;2023-05-10T00:50:16;18.98;;;17.40;;
22046;SDS011;11187;49.412;20.956;2023-05-10T00:52:56;17.05;;;15.40;;
22046;SDS011;11187;49.412;20.956;2023-05-10T00:55:38;16.73;;;15.52;;
22046;SDS011;11187;49.412;20.956;2023-05-10T00:58:18;16.88;;;15.27;;
22046;SDS011;11187;49.412;20.956;2023-05-10T01:01:07;17.30;;;16.00;;
22046;SDS011;11187;49.412;20.956;2023-05-10T01:03:41;17.48;;;16.00;;
22046;SDS011;11187;49.412;20.956;2023-05-10T01:06:28;17.23;;;15.93;;
22046;SDS011;11187;49.412;20.956;2023-05-10T01:09:01;17.27;;;15.88;;
22046;SDS011;11187;49.412;20.956;2023-05-10T01:11:48;18.30;;;16.58;;
22046;SDS011;11187;49.412;20.956;2023-05-10T01:14:22;18.13;;;16.52;;
22046;SDS011;11187;49.412;20.956;2023-05-10T01:17:09;18.30;;;16.85;;
22046;SDS011;11187;49.412;20.956;2023-05-10T01:19:45;18.83;;;17.02;;
22046;SDS011;11187;49.412;20.956;2023-05-10T01:26:14;17.10;;;15.63;;
22046;SDS011;11187;49.412;20.956;2023-05-10T01:32:13;17.80;;;16.40;;
22046;SDS011;11187;49.412;20.956;2023-05-10T01:35:06;17.35;;;15.95;;
22046;SDS011;11187;49.412;20.956;2023-05-10T01:47:42;17.30;;;15.68;;
22046;SDS011;11187;49.412;20.956;2023-05-10T01:50:48;17.30;;;16.00;;
22046;SDS011;11187;49.412;20.956;2023-05-10T01:53:23;18.27;;;16.80;;
22046;SDS011;11187;49.412;20.956;2023-05-10T01:56:17;17.17;;;15.82;;
22046;SDS011;11187;49.412;20.956;2023-05-10T01:58:56;18.90;;;17.17;;
22046;SDS011;11187;49.412;20.956;2023-05-10T02:01:45;18.15;;;16.67;;
22046;SDS011;11187;49.412;20.956;2023-05-10T02:04:20;17.20;;;15.73;;
22046;SDS011;11187;49.412;20.956;2023-05-10T02:07:17;17.73;;;16.33;;
22046;SDS011;11187;49.412;20.956;2023-05-10T02:09:51;17.58;;;15.93;;
22046;SDS011;11187;49.412;20.956;2023-05-10T02:12:47;16.90;;;15.40;;
22046;SDS011;11187;49.412;20.956;2023-05-10T02:15:22;16.60;;;15.30;;
22046;SDS011;11187;49.412;20.956;2023-05-10T02:18:18;16.85;;;15.65;;
22046;SDS011;11187;49.412;20.956;2023-05-10T02:21:12;17.30;;;16.00;;
22046;SDS011;11187;49.412;20.956;2023-05-10T02:24:08;17.77;;;15.57;;
22046;SDS011;11187;49.412;20.956;2023-05-10T02:27:03;17.00;;;15.60;;
22046;SDS011;11187;49.412;20.956;2023-05-10T02:29:37;17.98;;;16.52;;
22046;SDS011;11187;49.412;20.956;2023-05-10T02:32:25;18.52;;;17.13;;
22046;SDS011;11187;49.412;20.956;2023-05-10T02:35:01;18.42;;;16.73;;
22046;SDS011;11187;49.412;20.956;2023-05-10T02:37:56;18.35;;;16.65;;
22046;SDS011;11187;49.412;20.956;2023-05-10T02:40:51;18.35;;;16.75;;
22046;SDS011;11187;49.412;20.956;2023-05-10T02:43:25;18.05;;;16.65;;
22046;SDS011;11187;49.412;20.956;2023-05-10T02:46:14;18.02;;;16.60;;
22046;SDS011;11187;49.412;20.956;2023-05-10T02:48:47;16.92;;;15.63;;
22046;SDS011;11187;49.412;20.956;2023-05-10T02:51:34;18.23;;;16.83;;
22046;SDS011;11187;49.412;20.956;2023-05-10T02:54:11;19.20;;;17.65;;
22046;SDS011;11187;49.412;20.956;2023-05-10T02:57:03;18.48;;;16.98;;
22046;SDS011;11187;49.412;20.956;2023-05-10T02:59:38;16.48;;;15.07;;
22046;SDS011;11187;49.412;20.956;2023-05-10T03:02:25;16.75;;;15.45;;
22046;SDS011;11187;49.412;20.956;2023-05-10T03:05:01;18.77;;;17.33;;
22046;SDS011;11187;49.412;20.956;2023-05-10T03:07:49;17.23;;;15.73;;
22046;SDS011;11187;49.412;20.956;2023-05-10T03:10:27;17.80;;;16.40;;
22046;SDS011;11187;49.412;20.956;2023-05-10T03:13:24;17.35;;;15.82;;
22046;SDS011;11187;49.412;20.956;2023-05-10T03:16:06;17.65;;;15.93;;
22046;SDS011;11187;49.412;20.956;2023-05-10T03:19:02;17.55;;;16.10;;
22046;SDS011;11187;49.412;20.956;2023-05-10T03:21:41;18.02;;;16.40;;
22046;SDS011;11187;49.412;20.956;2023-05-10T03:24:34;17.65;;;16.25;;
22046;SDS011;11187;49.412;20.956;2023-05-10T03:27:09;18.15;;;16.65;;
22046;SDS011;11187;49.412;20.956;2023-05-10T03:29:57;18.02;;;16.42;;
22046;SDS011;11187;49.412;20.956;2023-05-10T03:32:30;19.88;;;18.13;;
22046;SDS011;11187;49.412;20.956;2023-05-10T03:35:17;19.33;;;17.33;;
22046;SDS011;11187;49.412;20.956;2023-05-10T03:37:50;20.15;;;18.55;;
22046;SDS011;11187;49.412;20.956;2023-05-10T03:40:37;19.13;;;17.67;;
22046;SDS011;11187;49.412;20.956;2023-05-10T03:43:10;17.63;;;16.23;;
22046;SDS011;11187;49.412;20.956;2023-05-10T03:45:57;18.42;;;16.83;;
22046;SDS011;11187;49.412;20.956;2023-05-10T03:48:31;16.58;;;15.10;;
22046;SDS011;11187;49.412;20.956;2023-05-10T03:51:19;16.85;;;15.10;;
22046;SDS011;11187;49.412;20.956;2023-05-10T03:53:52;18.70;;;17.00;;
22046;SDS011;11187;49.412;20.956;2023-05-10T03:56:46;17.88;;;15.80;;
22046;SDS011;11187;49.412;20.956;2023-05-10T03:59:20;17.00;;;15.63;;
22046;SDS011;11187;49.412;20.956;2023-05-10T04:02:14;17.42;;;15.77;;
22046;SDS011;11187;49.412;20.956;2023-05-10T04:05:08;17.50;;;16.17;;
22046;SDS011;11187;49.412;20.956;2023-05-10T04:07:41;17.25;;;15.68;;
22046;SDS011;11187;49.412;20.956;2023-05-10T04:10:36;18.30;;;16.67;;
22046;SDS011;11187;49.412;20.956;2023-05-10T04:13:30;16.73;;;15.18;;
22046;SDS011;11187;49.412;20.956;2023-05-10T04:16:03;15.38;;;13.77;;
22046;SDS011;11187;49.412;20.956;2023-05-10T04:18:53;15.77;;;14.25;;
22046;SDS011;11187;49.412;20.956;2023-05-10T04:21:26;15.90;;;14.30;;
22046;SDS011;11187;49.412;20.956;2023-05-10T04:24:13;15.93;;;14.57;;
22046;SDS011;11187;49.412;20.956;2023-05-10T04:26:46;15.68;;;14.10;;
22046;SDS011;11187;49.412;20.956;2023-05-10T04:29:36;18.65;;;14.00;;
22046;SDS011;11187;49.412;20.956;2023-05-10T04:32:09;16.13;;;14.70;;
22046;SDS011;11187;49.412;20.956;2023-05-10T04:35:03;15.63;;;13.90;;
22046;SDS011;11187;49.412;20.956;2023-05-10T04:37:57;16.65;;;14.95;;
22046;SDS011;11187;49.412;20.956;2023-05-10T04:40:30;14.98;;;13.68;;
22046;SDS011;11187;49.412;20.956;2023-05-10T04:43:17;16.58;;;13.40;;
22046;SDS011;11187;49.412;20.956;2023-05-10T04:45:50;15.73;;;14.43;;
22046;SDS011;11187;49.412;20.956;2023-05-10T04:48:44;15.95;;;14.55;;
22046;SDS011;11187;49.412;20.956;2023-05-10T04:51:17;18.83;;;14.60;;
22046;SDS011;11187;49.412;20.956;2023-05-10T04:54:04;15.70;;;14.13;;
22046;SDS011;11187;49.412;20.956;2023-05-10T04:56:37;16.40;;;13.90;;
22046;SDS011;11187;49.412;20.956;2023-05-10T04:59:24;15.90;;;13.88;;
22046;SDS011;11187;49.412;20.956;2023-05-10T05:01:57;16.35;;;14.75;;
22046;SDS011;11187;49.412;20.956;2023-05-10T05:04:44;13.80;;;12.65;;
22046;SDS011;11187;49.412;20.956;2023-05-10T05:07:17;16.65;;;13.98;;
22046;SDS011;11187;49.412;20.956;2023-05-10T05:10:07;13.48;;;12.25;;
22046;SDS011;11187;49.412;20.956;2023-05-10T05:12:42;14.40;;;13.05;;
22046;SDS011;11187;49.412;20.956;2023-05-10T05:15:29;16.45;;;13.68;;
22046;SDS011;11187;49.412;20.956;2023-05-10T05:18:03;13.68;;;12.65;;
22046;SDS011;11187;49.412;20.956;2023-05-10T05:20:50;15.68;;;14.27;;
22046;SDS011;11187;49.412;20.956;2023-05-10T05:23:23;14.38;;;13.10;;
22046;SDS011;11187;49.412;20.956;2023-05-10T05:26:10;14.65;;;13.32;;
22046;SDS011;11187;49.412;20.956;2023-05-10T05:28:43;14.23;;;13.05;;
22046;SDS011;11187;49.412;20.956;2023-05-10T05:31:41;14.90;;;13.63;;
22046;SDS011;11187;49.412;20.956;2023-05-10T05:34:14;16.02;;;14.82;;
22046;SDS011;11187;49.412;20.956;2023-05-10T05:37:02;15.40;;;14.30;;
22046;SDS011;11187;49.412;20.956;2023-05-10T05:39:35;16.23;;;14.70;;
22046;SDS011;11187;49.412;20.956;2023-05-10T05:42:22;15.82;;;14.63;;
22046;SDS011;11187;49.412;20.956;2023-05-10T05:44:55;16.85;;;15.48;;
22046;SDS011;11187;49.412;20.956;2023-05-10T05:47:42;16.45;;;15.05;;
22046;SDS011;11187;49.412;20.956;2023-05-10T05:50:15;14.65;;;13.50;;
22046;SDS011;11187;49.412;20.956;2023-05-10T05:53:12;15.35;;;13.88;;
22046;SDS011;11187;49.412;20.956;2023-05-10T05:55:55;16.40;;;14.85;;
22046;SDS011;11187;49.412;20.956;2023-05-10T05:58:44;17.02;;;15.55;;
22046;SDS011;11187;49.412;20.956;2023-05-10T06:01:17;16.42;;;15.23;;
22046;SDS011;11187;49.412;20.956;2023-05-10T06:04:04;14.73;;;13.40;;
22046;SDS011;11187;49.412;20.956;2023-05-10T06:06:37;15.13;;;13.77;;
22046;SDS011;11187;49.412;20.956;2023-05-10T06:09:24;15.35;;;13.93;;
22046;SDS011;11187;49.412;20.956;2023-05-10T06:11:57;16.35;;;14.85;;
22046;SDS011;11187;49.412;20.956;2023-05-10T06:14:44;14.52;;;13.35;;
22046;SDS011;11187;49.412;20.956;2023-05-10T06:17:17;15.07;;;13.82;;
22046;SDS011;11187;49.412;20.956;2023-05-10T06:19:58;15.35;;;14.13;;
22046;SDS011;11187;49.412;20.956;2023-05-10T06:22:38;16.25;;;14.85;;
22046;SDS011;11187;49.412;20.956;2023-05-10T06:25:18;16.92;;;15.52;;
22046;SDS011;11187;49.412;20.956;2023-05-10T06:27:59;17.60;;;16.40;;
22046;SDS011;11187;49.412;20.956;2023-05-10T06:30:32;15.82;;;14.30;;
22046;SDS011;11187;49.412;20.956;2023-05-10T06:33:20;16.23;;;14.90;;
22046;SDS011;11187;49.412;20.956;2023-05-10T06:35:53;15.98;;;14.18;;
22046;SDS011;11187;49.412;20.956;2023-05-10T06:38:40;16.60;;;15.00;;
22046;SDS011;11187;49.412;20.956;2023-05-10T06:41:13;16.98;;;15.55;;
22046;SDS011;11187;49.412;20.956;2023-05-10T06:44:03;15.30;;;14.18;;
22046;SDS011;11187;49.412;20.956;2023-05-10T06:46:36;15.32;;;14.02;;
22046;SDS011;11187;49.412;20.956;2023-05-10T06:49:30;14.95;;;13.68;;
22046;SDS011;11187;49.412;20.956;2023-05-10T06:52:03;13.77;;;12.60;;
22046;SDS011;11187;49.412;20.956;2023-05-10T06:54:50;12.43;;;11.32;;
22046;SDS011;11187;49.412;20.956;2023-05-10T06:57:23;13.30;;;12.13;;
22046;SDS011;11187;49.412;20.956;2023-05-10T07:00:17;16.48;;;15.27;;
22046;SDS011;11187;49.412;20.956;2023-05-10T07:03:12;14.88;;;13.88;;
22046;SDS011;11187;49.412;20.956;2023-05-10T07:06:06;15.18;;;14.18;;
22046;SDS011;11187;49.412;20.956;2023-05-10T07:09:12;18.20;;;16.80;;
22046;SDS011;11187;49.412;20.956;2023-05-10T07:11:46;19.48;;;17.50;;
22046;SDS011;11187;49.412;20.956;2023-05-10T07:14:40;21.08;;;19.08;;
22046;SDS011;11187;49.412;20.956;2023-05-10T07:17:34;20.83;;;18.55;;
22046;SDS011;11187;49.412;20.956;2023-05-10T07:20:28;18.80;;;17.05;;
22046;SDS011;11187;49.412;20.956;2023-05-10T07:23:01;16.02;;;14.82;;
22046;SDS011;11187;49.412;20.956;2023-05-10T07:25:48;17.13;;;15.82;;
22046;SDS011;11187;49.412;20.956;2023-05-10T07:28:24;16.85;;;15.40;;
22046;SDS011;11187;49.412;20.956;2023-05-10T07:31:11;17.98;;;16.45;;
22046;SDS011;11187;49.412;20.956;2023-05-10T07:33:44;18.38;;;17.05;;
22046;SDS011;11187;49.412;20.956;2023-05-10T07:36:31;17.92;;;16.20;;
22046;SDS011;11187;49.412;20.956;2023-05-10T07:39:05;18.05;;;16.75;;
22046;SDS011;11187;49.412;20.956;2023-05-10T07:42:03;20.38;;;18.77;;
22046;SDS011;11187;49.412;20.956;2023-05-10T07:44:36;17.98;;;16.60;;
22046;SDS011;11187;49.412;20.956;2023-05-10T07:47:23;18.70;;;17.02;;
22046;SDS011;11187;49.412;20.956;2023-05-10T07:49:56;17.88;;;16.58;;
22046;SDS011;11187;49.412;20.956;2023-05-10T07:52:43;16.55;;;15.45;;
22046;SDS011;11187;49.412;20.956;2023-05-10T07:55:18;15.82;;;14.48;;
22046;SDS011;11187;49.412;20.956;2023-05-10T07:58:06;16.52;;;15.27;;
22046;SDS011;11187;49.412;20.956;2023-05-10T08:00:39;15.30;;;14.23;;
22046;SDS011;11187;49.412;20.956;2023-05-10T08:03:26;15.52;;;14.43;;
22046;SDS011;11187;49.412;20.956;2023-05-10T08:05:59;19.85;;;16.98;;
22046;SDS011;11187;49.412;20.956;2023-05-10T08:08:46;15.75;;;14.48;;
22046;SDS011;11187;49.412;20.956;2023-05-10T08:11:22;17.90;;;16.60;;
22046;SDS011;11187;49.412;20.956;2023-05-10T08:14:16;18.63;;;16.75;;
22046;SDS011;11187;49.412;20.956;2023-05-10T08:16:49;16.13;;;14.77;;
22046;SDS011;11187;49.412;20.956;2023-05-10T08:19:36;14.13;;;13.10;;
22046;SDS011;11187;49.412;20.956;2023-05-10T08:22:09;14.52;;;13.38;;
22046;SDS011;11187;49.412;20.956;2023-05-10T08:25:03;16.70;;;15.07;;
22046;SDS011;11187;49.412;20.956;2023-05-10T08:27:57;19.55;;;16.70;;
22046;SDS011;11187;49.412;20.956;2023-05-10T08:30:30;18.20;;;16.80;;
22046;SDS011;11187;49.412;20.956;2023-05-10T08:33:24;15.95;;;14.68;;
22046;SDS011;11187;49.412;20.956;2023-05-10T08:36:19;14.20;;;12.90;;
22046;SDS011;11187;49.412;20.956;2023-05-10T08:38:54;15.27;;;14.07;;
22046;SDS011;11187;49.412;20.956;2023-05-10T08:41:58;16.27;;;15.13;;
22046;SDS011;11187;49.412;20.956;2023-05-10T08:44:55;16.88;;;15.57;;
22046;SDS011;11187;49.412;20.956;2023-05-10T08:47:51;17.33;;;15.85;;
22046;SDS011;11187;49.412;20.956;2023-05-10T08:50:45;14.20;;;13.00;;
22046;SDS011;11187;49.412;20.956;2023-05-10T08:53:20;15.63;;;14.27;;
22046;SDS011;11187;49.412;20.956;2023-05-10T08:56:09;16.00;;;14.93;;
22046;SDS011;11187;49.412;20.956;2023-05-10T08:58:42;16.98;;;15.73;;
22046;SDS011;11187;49.412;20.956;2023-05-10T09:01:29;15.77;;;14.38;;
22046;SDS011;11187;49.412;20.956;2023-05-10T09:04:04;14.77;;;13.68;;
22046;SDS011;11187;49.412;20.956;2023-05-10T09:06:52;14.95;;;13.77;;
22046;SDS011;11187;49.412;20.956;2023-05-10T09:09:25;15.40;;;14.30;;
22046;SDS011;11187;49.412;20.956;2023-05-10T09:12:13;16.23;;;12.90;;
22046;SDS011;11187;49.412;20.956;2023-05-10T09:14:48;13.10;;;11.90;;
22046;SDS011;11187;49.412;20.956;2023-05-10T09:17:44;12.10;;;11.10;;
22046;SDS011;11187;49.412;20.956;2023-05-10T09:20:39;13.55;;;12.25;;
22046;SDS011;11187;49.412;20.956;2023-05-10T09:23:12;14.23;;;13.02;;
22046;SDS011;11187;49.412;20.956;2023-05-10T09:26:06;14.32;;;12.98;;
22046;SDS011;11187;49.412;20.956;2023-05-10T09:28:50;12.02;;;11.02;;
22046;SDS011;11187;49.412;20.956;2023-05-10T09:31:47;12.63;;;11.73;;
22046;SDS011;11187;49.412;20.956;2023-05-10T09:34:30;14.43;;;13.25;;
22046;SDS011;11187;49.412;20.956;2023-05-10T09:37:20;13.07;;;12.10;;
22046;SDS011;11187;49.412;20.956;2023-05-10T09:40:06;13.15;;;12.15;;
22046;SDS011;11187;49.412;20.956;2023-05-10T09:45:30;13.05;;;11.85;;
22046;SDS011;11187;49.412;20.956;2023-05-10T09:48:21;12.65;;;11.65;;
22046;SDS011;11187;49.412;20.956;2023-05-10T09:50:57;14.23;;;12.77;;
22046;SDS011;11187;49.412;20.956;2023-05-10T09:57:18;15.68;;;12.75;;
22046;SDS011;11187;49.412;20.956;2023-05-10T10:00:18;13.15;;;11.98;;
22046;SDS011;11187;49.412;20.956;2023-05-10T10:03:13;13.00;;;11.80;;
22046;SDS011;11187;49.412;20.956;2023-05-10T10:05:50;14.50;;;13.18;;
22046;SDS011;11187;49.412;20.956;2023-05-10T10:08:37;13.98;;;12.68;;
22046;SDS011;11187;49.412;20.956;2023-05-10T10:11:10;11.77;;;10.88;;
22046;SDS011;11187;49.412;20.956;2023-05-10T10:13:57;13.45;;;12.27;;
22046;SDS011;11187;49.412;20.956;2023-05-10T10:16:30;12.30;;;11.25;;
22046;SDS011;11187;49.412;20.956;2023-05-10T10:19:34;13.18;;;12.25;;
22046;SDS011;11187;49.412;20.956;2023-05-10T10:22:08;14.30;;;12.98;;
22046;SDS011;11187;49.412;20.956;2023-05-10T10:24:55;12.88;;;11.98;;
22046;SDS011;11187;49.412;20.956;2023-05-10T10:27:43;12.27;;;11.10;;
22046;SDS011;11187;49.412;20.956;2023-05-10T10:30:37;13.00;;;11.98;;
22046;SDS011;11187;49.412;20.956;2023-05-10T10:36:17;12.82;;;11.73;;
22046;SDS011;11187;49.412;20.956;2023-05-10T10:41:54;12.60;;;11.57;;
22046;SDS011;11187;49.412;20.956;2023-05-10T10:52:46;14.30;;;13.07;;
22046;SDS011;11187;49.412;20.956;2023-05-10T10:55:21;14.02;;;12.88;;
22046;SDS011;11187;49.412;20.956;2023-05-10T10:58:09;14.98;;;13.63;;
22046;SDS011;11187;49.412;20.956;2023-05-10T11:00:42;12.73;;;11.52;;
22046;SDS011;11187;49.412;20.956;2023-05-10T11:03:29;13.35;;;12.25;;
22046;SDS011;11187;49.412;20.956;2023-05-10T11:06:02;14.88;;;13.55;;
22046;SDS011;11187;49.412;20.956;2023-05-10T11:08:49;13.02;;;11.82;;
22046;SDS011;11187;49.412;20.956;2023-05-10T11:11:25;13.60;;;12.50;;
22046;SDS011;11187;49.412;20.956;2023-05-10T11:14:12;14.00;;;13.00;;
22046;SDS011;11187;49.412;20.956;2023-05-10T11:16:45;14.38;;;12.88;;
22046;SDS011;11187;49.412;20.956;2023-05-10T11:19:57;12.73;;;11.82;;
22046;SDS011;11187;49.412;20.956;2023-05-10T11:23:15;13.40;;;11.32;;
22046;SDS011;11187;49.412;20.956;2023-05-10T11:26:09;14.38;;;12.48;;
22046;SDS011;11187;49.412;20.956;2023-05-10T11:29:03;12.77;;;11.88;;
22046;SDS011;11187;49.412;20.956;2023-05-10T11:31:42;12.00;;;10.98;;
22046;SDS011;11187;49.412;20.956;2023-05-10T11:34:36;13.27;;;12.23;;
22046;SDS011;11187;49.412;20.956;2023-05-10T11:37:09;14.02;;;13.02;;
22046;SDS011;11187;49.412;20.956;2023-05-10T11:40:03;13.52;;;12.30;;
22046;SDS011;11187;49.412;20.956;2023-05-10T11:42:57;11.85;;;10.95;;
22046;SDS011;11187;49.412;20.956;2023-05-10T11:45:34;11.85;;;10.75;;
22046;SDS011;11187;49.412;20.956;2023-05-10T11:48:29;13.82;;;12.73;;
22046;SDS011;11187;49.412;20.956;2023-05-10T11:51:02;14.23;;;13.15;;
22046;SDS011;11187;49.412;20.956;2023-05-10T11:53:49;14.30;;;13.27;;
22046;SDS011;11187;49.412;20.956;2023-05-10T11:56:26;11.90;;;11.02;;
22046;SDS011;11187;49.412;20.956;2023-05-10T11:59:13;15.18;;;11.40;;
22046;SDS011;11187;49.412;20.956;2023-05-10T12:01:47;13.75;;;12.85;;
22046;SDS011;11187;49.412;20.956;2023-05-10T12:04:34;13.13;;;12.23;;
22046;SDS011;11187;49.412;20.956;2023-05-10T12:07:08;14.63;;;12.23;;
22046;SDS011;11187;49.412;20.956;2023-05-10T12:12:47;11.27;;;9.20;;
22046;SDS011;11187;49.412;20.956;2023-05-10T12:15:34;12.35;;;11.45;;
22046;SDS011;11187;49.412;20.956;2023-05-10T12:18:08;14.07;;;12.48;;
22046;SDS011;11187;49.412;20.956;2023-05-10T12:20:56;12.48;;;11.52;;
22046;SDS011;11187;49.412;20.956;2023-05-10T12:23:44;11.75;;;10.85;;
22046;SDS011;11187;49.412;20.956;2023-05-10T12:26:39;12.23;;;11.23;;
22046;SDS011;11187;49.412;20.956;2023-05-10T12:29:50;16.02;;;12.80;;
22046;SDS011;11187;49.412;20.956;2023-05-10T12:32:36;13.20;;;11.02;;
22046;SDS011;11187;49.412;20.956;2023-05-10T12:35:44;13.30;;;10.65;;
22046;SDS011;11187;49.412;20.956;2023-05-10T12:38:41;15.38;;;10.75;;
22046;SDS011;11187;49.412;20.956;2023-05-10T12:41:36;12.23;;;11.25;;
22046;SDS011;11187;49.412;20.956;2023-05-10T12:44:10;12.90;;;11.90;;
22046;SDS011;11187;49.412;20.956;2023-05-10T12:47:04;13.68;;;12.05;;
22046;SDS011;11187;49.412;20.956;2023-05-10T12:49:38;13.88;;;12.10;;
22046;SDS011;11187;49.412;20.956;2023-05-10T12:52:32;16.63;;;11.57;;
22046;SDS011;11187;49.412;20.956;2023-05-10T12:55:06;12.10;;;11.20;;
22046;SDS011;11187;49.412;20.956;2023-05-10T12:57:53;13.68;;;12.35;;
22046;SDS011;11187;49.412;20.956;2023-05-10T13:00:26;12.65;;;11.63;;
22046;SDS011;11187;49.412;20.956;2023-05-10T13:03:13;14.73;;;11.73;;
22046;SDS011;11187;49.412;20.956;2023-05-10T13:05:48;11.98;;;10.90;;
22046;SDS011;11187;49.412;20.956;2023-05-10T13:08:42;12.77;;;11.50;;
22046;SDS011;11187;49.412;20.956;2023-05-10T13:11:36;12.60;;;11.60;;
22046;SDS011;11187;49.412;20.956;2023-05-10T13:14:30;14.00;;;13.00;;
22046;SDS011;11187;49.412;20.956;2023-05-10T13:17:25;12.93;;;11.77;;
22046;SDS011;11187;49.412;20.956;2023-05-10T13:20:08;12.73;;;11.48;;
22046;SDS011;11187;49.412;20.956;2023-05-10T13:22:56;12.07;;;10.95;;
22046;SDS011;11187;49.412;20.956;2023-05-10T13:25:50;13.30;;;12.30;;
22046;SDS011;11187;49.412;20.956;2023-05-10T13:28:44;13.40;;;12.25;;
22046;SDS011;11187;49.412;20.956;2023-05-10T13:31:18;12.90;;;12.00;;
22046;SDS011;11187;49.412;20.956;2023-05-10T13:34:05;14.57;;;13.15;;
22046;SDS011;11187;49.412;20.956;2023-05-10T13:36:39;12.15;;;11.35;;
22046;SDS011;11187;49.412;20.956;2023-05-10T13:39:32;13.40;;;12.40;;
22046;SDS011;11187;49.412;20.956;2023-05-10T13:42:26;14.40;;;12.15;;
22046;SDS011;11187;49.412;20.956;2023-05-10T13:45:00;13.15;;;12.00;;
22046;SDS011;11187;49.412;20.956;2023-05-10T13:47:47;12.65;;;11.48;;
22046;SDS011;11187;49.412;20.956;2023-05-10T13:50:21;12.00;;;10.85;;
22046;SDS011;11187;49.412;20.956;2023-05-10T13:53:07;12.77;;;11.63;;
22046;SDS011;11187;49.412;20.956;2023-05-10T13:55:41;12.60;;;11.50;;
22046;SDS011;11187;49.412;20.956;2023-05-10T13:58:27;12.43;;;11.43;;
22046;SDS011;11187;49.412;20.956;2023-05-10T14:01:00;12.75;;;11.73;;
22046;SDS011;11187;49.412;20.956;2023-05-10T14:03:47;13.18;;;12.10;;
22046;SDS011;11187;49.412;20.956;2023-05-10T14:06:21;12.90;;;12.00;;
22046;SDS011;11187;49.412;20.956;2023-05-10T14:09:07;13.32;;;11.60;;
22046;SDS011;11187;49.412;20.956;2023-05-10T14:11:40;12.75;;;11.50;;
22046;SDS011;11187;49.412;20.956;2023-05-10T14:14:27;13.55;;;12.15;;
22046;SDS011;11187;49.412;20.956;2023-05-10T14:17:02;13.25;;;12.25;;
22046;SDS011;11187;49.412;20.956;2023-05-10T14:19:52;14.23;;;12.48;;
22046;SDS011;11187;49.412;20.956;2023-05-10T14:22:25;15.45;;;13.98;;
22046;SDS011;11187;49.412;20.956;2023-05-10T14:25:12;13.25;;;12.25;;
22046;SDS011;11187;49.412;20.956;2023-05-10T14:28:06;14.88;;;13.68;;
22046;SDS011;11187;49.412;20.956;2023-05-10T14:31:00;16.05;;;14.95;;
22046;SDS011;11187;49.412;20.956;2023-05-10T14:33:34;13.07;;;12.18;;
22046;SDS011;11187;49.412;20.956;2023-05-10T14:36:27;13.80;;;12.90;;
22046;SDS011;11187;49.412;20.956;2023-05-10T14:39:21;16.92;;;13.55;;
22046;SDS011;11187;49.412;20.956;2023-05-10T14:41:56;14.02;;;12.90;;
22046;SDS011;11187;49.412;20.956;2023-05-10T14:44:43;13.77;;;12.77;;
22046;SDS011;11187;49.412;20.956;2023-05-10T14:47:16;13.70;;;12.52;;
22046;SDS011;11187;49.412;20.956;2023-05-10T14:50:03;13.40;;;12.25;;
22046;SDS011;11187;49.412;20.956;2023-05-10T14:52:46;13.30;;;12.20;;
22046;SDS011;11187;49.412;20.956;2023-05-10T14:55:33;13.80;;;12.80;;
22046;SDS011;11187;49.412;20.956;2023-05-10T14:58:08;12.75;;;11.75;;
22046;SDS011;11187;49.412;20.956;2023-05-10T15:00:54;16.80;;;12.25;;
22046;SDS011;11187;49.412;20.956;2023-05-10T15:03:28;13.00;;;12.10;;
22046;SDS011;11187;49.412;20.956;2023-05-10T15:06:30;13.43;;;12.15;;
22046;SDS011;11187;49.412;20.956;2023-05-10T15:09:03;14.45;;;13.05;;
22046;SDS011;11187;49.412;20.956;2023-05-10T15:11:57;23.85;;;12.48;;
22046;SDS011;11187;49.412;20.956;2023-05-10T15:14:51;13.60;;;12.30;;
22046;SDS011;11187;49.412;20.956;2023-05-10T15:17:25;13.20;;;12.30;;
22046;SDS011;11187;49.412;20.956;2023-05-10T15:20:11;12.88;;;11.77;;
22046;SDS011;11187;49.412;20.956;2023-05-10T15:22:44;11.43;;;10.50;;
22046;SDS011;11187;49.412;20.956;2023-05-10T15:25:31;12.85;;;11.88;;
22046;SDS011;11187;49.412;20.956;2023-05-10T15:28:08;14.30;;;13.30;;
22046;SDS011;11187;49.412;20.956;2023-05-10T15:30:55;12.65;;;11.73;;
22046;SDS011;11187;49.412;20.956;2023-05-10T15:33:29;12.48;;;11.52;;
22046;SDS011;11187;49.412;20.956;2023-05-10T15:36:22;12.68;;;11.43;;
22046;SDS011;11187;49.412;20.956;2023-05-10T15:39:16;13.20;;;11.85;;
22046;SDS011;11187;49.412;20.956;2023-05-10T15:41:50;12.48;;;11.57;;
22046;SDS011;11187;49.412;20.956;2023-05-10T15:44:37;14.30;;;12.95;;
22046;SDS011;11187;49.412;20.956;2023-05-10T15:47:10;13.40;;;12.38;;
22046;SDS011;11187;49.412;20.956;2023-05-10T15:49:57;12.48;;;11.60;;
22046;SDS011;11187;49.412;20.956;2023-05-10T15:52:31;12.98;;;11.63;;
22046;SDS011;11187;49.412;20.956;2023-05-10T15:55:17;13.18;;;12.18;;
22046;SDS011;11187;49.412;20.956;2023-05-10T15:57:51;13.40;;;12.40;;
22046;SDS011;11187;49.412;20.956;2023-05-10T16:00:45;13.25;;;12.27;;
22046;SDS011;11187;49.412;20.956;2023-05-10T16:03:39;14.55;;;13.13;;
22046;SDS011;11187;49.412;20.956;2023-05-10T16:06:13;13.15;;;12.05;;
22046;SDS011;11187;49.412;20.956;2023-05-10T16:09:06;13.73;;;12.38;;
22046;SDS011;11187;49.412;20.956;2023-05-10T16:11:41;12.27;;;11.35;;
22046;SDS011;11187;49.412;20.956;2023-05-10T16:14:28;13.15;;;12.02;;
22046;SDS011;11187;49.412;20.956;2023-05-10T16:17:04;14.00;;;12.70;;
22046;SDS011;11187;49.412;20.956;2023-05-10T16:19:57;13.27;;;11.82;;
22046;SDS011;11187;49.412;20.956;2023-05-10T16:22:31;14.15;;;11.63;;
22046;SDS011;11187;49.412;20.956;2023-05-10T16:25:20;13.15;;;12.18;;